sensor_id;sensor_type;location;lat;lon;timestamp;pressure;altitude;pressure_sealevel;temperature;humidity
23261;BME280;11799;47.740;-3.390;2022-07-17T00:00:05;101998.47;;;22.49;48.79
23261;BME280;11799;47.740;-3.390;2022-07-17T00:02:32;101995.44;;;22.45;48.72
23261;BME280;11799;47.740;-3.390;2022-07-17T00:04:57;102002.09;;;22.44;48.48
23261;BME280;11799;47.740;-3.390;2022-07-17T00:07:23;101995.19;;;22.41;48.84
23261;BME280;11799;47.740;-3.390;2022-07-17T00:09:48;102002.97;;;22.39;48.61
23261;BME280;11799;47.740;-3.390;2022-07-17T00:12:14;101995.53;;;22.35;48.74
23261;BME280;11799;47.740;-3.390;2022-07-17T00:14:39;102003.53;;;22.36;48.34
23261;BME280;11799;47.740;-3.390;2022-07-17T00:17:05;101999.94;;;22.36;48.26
23261;BME280;11799;47.740;-3.390;2022-07-17T00:19:32;102005.25;;;22.32;48.52
23261;BME280;11799;47.740;-3.390;2022-07-17T00:21:58;102005.56;;;22.26;48.30
23261;BME280;11799;47.740;-3.390;2022-07-17T00:24:23;101990.34;;;22.23;47.94
23261;BME280;11799;47.740;-3.390;2022-07-17T00:26:50;101996.19;;;22.22;48.20
23261;BME280;11799;47.740;-3.390;2022-07-17T00:29:16;101990.34;;;22.23;48.18
23261;BME280;11799;47.740;-3.390;2022-07-17T00:31:42;101989.00;;;22.21;48.21
23261;BME280;11799;47.740;-3.390;2022-07-17T00:34:08;101995.91;;;22.18;48.19
23261;BME280;11799;47.740;-3.390;2022-07-17T00:36:34;101986.22;;;22.16;47.96
23261;BME280;11799;47.740;-3.390;2022-07-17T00:38:59;101989.53;;;22.18;47.50
23261;BME280;11799;47.740;-3.390;2022-07-17T00:41:25;101986.50;;;22.14;47.79
23261;BME280;11799;47.740;-3.390;2022-07-17T00:43:50;101979.31;;;22.13;47.23
23261;BME280;11799;47.740;-3.390;2022-07-17T00:46:16;101981.25;;;22.13;47.50
23261;BME280;11799;47.740;-3.390;2022-07-17T00:48:42;101978.25;;;22.09;47.77
23261;BME280;11799;47.740;-3.390;2022-07-17T00:51:07;101982.41;;;22.06;47.04
23261;BME280;11799;47.740;-3.390;2022-07-17T00:53:35;101978.53;;;22.07;47.57
23261;BME280;11799;47.740;-3.390;2022-07-17T00:56:04;101980.47;;;22.02;47.43
23261;BME280;11799;47.740;-3.390;2022-07-17T00:58:30;101972.47;;;22.00;46.97
23261;BME280;11799;47.740;-3.390;2022-07-17T01:00:58;101977.16;;;22.00;47.50
23261;BME280;11799;47.740;-3.390;2022-07-17T01:03:25;101978.03;;;21.95;47.15
23261;BME280;11799;47.740;-3.390;2022-07-17T01:05:50;101972.22;;;21.92;47.44
23261;BME280;11799;47.740;-3.390;2022-07-17T01:08:17;101970.31;;;21.87;47.58
23261;BME280;11799;47.740;-3.390;2022-07-17T01:10:42;101972.81;;;21.84;47.55
23261;BME280;11799;47.740;-3.390;2022-07-17T01:13:08;101972.53;;;21.80;47.81
23261;BME280;11799;47.740;-3.390;2022-07-17T01:15:39;101973.66;;;21.79;47.59
23261;BME280;11799;47.740;-3.390;2022-07-17T01:18:09;101964.81;;;21.77;47.95
23261;BME280;11799;47.740;-3.390;2022-07-17T01:20:37;101979.50;;;21.72;47.83
23261;BME280;11799;47.740;-3.390;2022-07-17T01:23:03;101972.06;;;21.68;48.01
23261;BME280;11799;47.740;-3.390;2022-07-17T01:25:29;101975.66;;;21.68;47.30
23261;BME280;11799;47.740;-3.390;2022-07-17T01:27:55;101963.47;;;21.69;47.46
23261;BME280;11799;47.740;-3.390;2022-07-17T01:30:21;101961.28;;;21.66;47.72
23261;BME280;11799;47.740;-3.390;2022-07-17T01:32:47;101956.06;;;21.60;47.40
23261;BME280;11799;47.740;-3.390;2022-07-17T01:35:14;101956.59;;;21.62;47.56
23261;BME280;11799;47.740;-3.390;2022-07-17T01:37:40;101948.88;;;21.59;47.22
23261;BME280;11799;47.740;-3.390;2022-07-17T01:40:08;101956.31;;;21.63;47.05
23261;BME280;11799;47.740;-3.390;2022-07-17T01:42:35;101957.97;;;21.64;47.03
23261;BME280;11799;47.740;-3.390;2022-07-17T01:45:01;101945.84;;;21.55;47.21
23261;BME280;11799;47.740;-3.390;2022-07-17T01:47:28;101948.59;;;21.60;46.72
23261;BME280;11799;47.740;-3.390;2022-07-17T01:49:55;101945.00;;;21.60;46.82
23261;BME280;11799;47.740;-3.390;2022-07-17T01:52:23;101945.03;;;21.55;47.01
23261;BME280;11799;47.740;-3.390;2022-07-17T01:54:49;101947.25;;;21.53;47.17
23261;BME280;11799;47.740;-3.390;2022-07-17T01:57:15;101944.19;;;21.49;47.06
23261;BME280;11799;47.740;-3.390;2022-07-17T01:59:41;101937.84;;;21.48;47.05
23261;BME280;11799;47.740;-3.390;2022-07-17T02:02:07;101946.41;;;21.57;45.81
23261;BME280;11799;47.740;-3.390;2022-07-17T02:04:37;101940.56;;;21.64;45.47
23261;BME280;11799;47.740;-3.390;2022-07-17T02:07:03;101938.94;;;21.58;45.81
23261;BME280;11799;47.740;-3.390;2022-07-17T02:09:29;101941.16;;;21.56;46.12
23261;BME280;11799;47.740;-3.390;2022-07-17T02:11:55;101935.34;;;21.52;46.13
23261;BME280;11799;47.740;-3.390;2022-07-17T02:14:21;101932.59;;;21.52;45.60
23261;BME280;11799;47.740;-3.390;2022-07-17T02:16:46;101928.44;;;21.55;45.46
23261;BME280;11799;47.740;-3.390;2022-07-17T02:19:12;101929.25;;;21.55;45.62
23261;BME280;11799;47.740;-3.390;2022-07-17T02:21:38;101933.97;;;21.49;45.74
23261;BME280;11799;47.740;-3.390;2022-07-17T02:24:04;101934.53;;;21.46;45.75
23261;BME280;11799;47.740;-3.390;2022-07-17T02:26:29;101932.31;;;21.54;45.74
23261;BME280;11799;47.740;-3.390;2022-07-17T02:28:55;101925.66;;;21.49;45.60
23261;BME280;11799;47.740;-3.390;2022-07-17T02:31:21;101927.88;;;21.47;45.86
23261;BME280;11799;47.740;-3.390;2022-07-17T02:33:46;101930.66;;;21.47;45.55
23261;BME280;11799;47.740;-3.390;2022-07-17T02:36:12;101943.94;;;21.45;45.27
23261;BME280;11799;47.740;-3.390;2022-07-17T02:38:38;101930.41;;;21.44;45.46
23261;BME280;11799;47.740;-3.390;2022-07-17T02:41:03;101927.91;;;21.42;45.58
23261;BME280;11799;47.740;-3.390;2022-07-17T02:43:29;101929.31;;;21.40;45.44
23261;BME280;11799;47.740;-3.390;2022-07-17T02:45:54;101932.34;;;21.38;45.34
23261;BME280;11799;47.740;-3.390;2022-07-17T02:48:20;101936.78;;;21.39;45.55
23261;BME280;11799;47.740;-3.390;2022-07-17T02:50:46;101930.69;;;21.37;45.61
23261;BME280;11799;47.740;-3.390;2022-07-17T02:53:11;101931.00;;;21.31;45.50
23261;BME280;11799;47.740;-3.390;2022-07-17T02:55:37;101940.41;;;21.30;45.59
23261;BME280;11799;47.740;-3.390;2022-07-17T02:58:02;101935.44;;;21.27;45.92
23261;BME280;11799;47.740;-3.390;2022-07-17T03:00:28;101932.66;;;21.22;46.02
23261;BME280;11799;47.740;-3.390;2022-07-17T03:02:54;101934.63;;;21.26;46.31
23261;BME280;11799;47.740;-3.390;2022-07-17T03:05:21;101926.59;;;21.25;45.66
23261;BME280;11799;47.740;-3.390;2022-07-17T03:07:46;101922.44;;;21.22;45.69
23261;BME280;11799;47.740;-3.390;2022-07-17T03:10:12;101923.53;;;21.16;45.84
23261;BME280;11799;47.740;-3.390;2022-07-17T03:12:39;101923.00;;;21.14;45.85
23261;BME280;11799;47.740;-3.390;2022-07-17T03:15:05;101912.50;;;21.11;45.80
23261;BME280;11799;47.740;-3.390;2022-07-17T03:17:31;101910.03;;;21.09;45.95
23261;BME280;11799;47.740;-3.390;2022-07-17T03:19:56;101910.06;;;20.99;46.53
23261;BME280;11799;47.740;-3.390;2022-07-17T03:22:22;101913.38;;;21.01;46.06
23261;BME280;11799;47.740;-3.390;2022-07-17T03:24:48;101907.56;;;20.98;46.41
23261;BME280;11799;47.740;-3.390;2022-07-17T03:27:13;101911.16;;;20.98;46.77
23261;BME280;11799;47.740;-3.390;2022-07-17T03:29:39;101908.13;;;20.95;46.36
23261;BME280;11799;47.740;-3.390;2022-07-17T03:32:05;101907.31;;;20.94;46.26
23261;BME280;11799;47.740;-3.390;2022-07-17T03:34:31;101909.25;;;20.89;46.61
23261;BME280;11799;47.740;-3.390;2022-07-17T03:36:56;101912.03;;;20.83;46.78
23261;BME280;11799;47.740;-3.390;2022-07-17T03:39:22;101908.72;;;20.81;46.62
23261;BME280;11799;47.740;-3.390;2022-07-17T03:41:48;101909.00;;;20.85;46.54
23261;BME280;11799;47.740;-3.390;2022-07-17T03:44:13;101912.56;;;20.80;47.42
23261;BME280;11799;47.740;-3.390;2022-07-17T03:46:39;101899.88;;;20.69;47.07
23261;BME280;11799;47.740;-3.390;2022-07-17T03:49:05;101922.53;;;20.71;47.56
23261;BME280;11799;47.740;-3.390;2022-07-17T03:51:31;101921.16;;;20.69;47.33
23261;BME280;11799;47.740;-3.390;2022-07-17T03:53:56;101916.75;;;20.63;47.04
23261;BME280;11799;47.740;-3.390;2022-07-17T03:56:22;101916.19;;;20.61;47.27
23261;BME280;11799;47.740;-3.390;2022-07-17T03:58:48;101916.75;;;20.58;47.54
23261;BME280;11799;47.740;-3.390;2022-07-17T04:01:14;101916.19;;;20.55;47.24
23261;BME280;11799;47.740;-3.390;2022-07-17T04:03:40;101911.78;;;20.60;46.73
23261;BME280;11799;47.740;-3.390;2022-07-17T04:06:05;101913.16;;;20.57;46.93
23261;BME280;11799;47.740;-3.390;2022-07-17T04:08:31;101915.91;;;20.57;46.82
23261;BME280;11799;47.740;-3.390;2022-07-17T04:10:57;101911.50;;;20.56;46.73
23261;BME280;11799;47.740;-3.390;2022-07-17T04:13:22;101914.00;;;20.58;47.05
23261;BME280;11799;47.740;-3.390;2022-07-17T04:15:48;101927.78;;;20.52;47.33
23261;BME280;11799;47.740;-3.390;2022-07-17T04:18:28;101927.53;;;20.49;47.34
23261;BME280;11799;47.740;-3.390;2022-07-17T04:20:57;101925.03;;;20.47;47.32
23261;BME280;11799;47.740;-3.390;2022-07-17T04:23:23;101924.75;;;20.44;47.25
23261;BME280;11799;47.740;-3.390;2022-07-17T04:25:48;101930.25;;;20.44;47.40
23261;BME280;11799;47.740;-3.390;2022-07-17T04:28:14;101924.47;;;20.40;47.32
23261;BME280;11799;47.740;-3.390;2022-07-17T04:30:41;101927.47;;;20.39;47.77
23261;BME280;11799;47.740;-3.390;2022-07-17T04:33:06;101926.91;;;20.37;47.61
23261;BME280;11799;47.740;-3.390;2022-07-17T04:35:32;101926.38;;;20.35;47.49
23261;BME280;11799;47.740;-3.390;2022-07-17T04:37:58;101933.53;;;20.36;47.24
23261;BME280;11799;47.740;-3.390;2022-07-17T04:40:24;101934.09;;;20.33;47.17
23261;BME280;11799;47.740;-3.390;2022-07-17T04:42:49;101934.09;;;20.28;47.46
23261;BME280;11799;47.740;-3.390;2022-07-17T04:45:15;101939.63;;;20.28;48.11
23261;BME280;11799;47.740;-3.390;2022-07-17T04:47:41;101938.78;;;20.22;47.92
23261;BME280;11799;47.740;-3.390;2022-07-17T04:50:08;101944.84;;;20.24;47.64
23261;BME280;11799;47.740;-3.390;2022-07-17T04:52:34;101949.00;;;20.21;48.13
23261;BME280;11799;47.740;-3.390;2022-07-17T04:54:59;101945.13;;;20.22;48.39
23261;BME280;11799;47.740;-3.390;2022-07-17T04:57:25;101943.19;;;20.13;47.92
23261;BME280;11799;47.740;-3.390;2022-07-17T04:59:51;101945.69;;;20.19;47.94
23261;BME280;11799;47.740;-3.390;2022-07-17T05:02:17;101947.63;;;20.19;48.05
23261;BME280;11799;47.740;-3.390;2022-07-17T05:04:42;101942.38;;;20.17;47.79
23261;BME280;11799;47.740;-3.390;2022-07-17T05:07:08;101953.13;;;20.24;47.67
23261;BME280;11799;47.740;-3.390;2022-07-17T05:09:33;101953.13;;;20.24;47.88
23261;BME280;11799;47.740;-3.390;2022-07-17T05:11:59;101951.47;;;20.23;47.82
23261;BME280;11799;47.740;-3.390;2022-07-17T05:14:24;101955.63;;;20.25;47.89
23261;BME280;11799;47.740;-3.390;2022-07-17T05:16:50;101945.41;;;20.31;47.66
23261;BME280;11799;47.740;-3.390;2022-07-17T05:19:15;101949.28;;;20.35;47.68
23261;BME280;11799;47.740;-3.390;2022-07-17T05:21:41;101954.50;;;20.37;47.57
23261;BME280;11799;47.740;-3.390;2022-07-17T05:24:07;101956.75;;;20.40;47.80
23261;BME280;11799;47.740;-3.390;2022-07-17T05:26:32;101955.91;;;20.39;48.37
23261;BME280;11799;47.740;-3.390;2022-07-17T05:28:58;101953.97;;;20.35;48.17
23261;BME280;11799;47.740;-3.390;2022-07-17T05:31:24;101954.00;;;20.40;48.48
23261;BME280;11799;47.740;-3.390;2022-07-17T05:33:49;101960.94;;;20.52;48.23
23261;BME280;11799;47.740;-3.390;2022-07-17T05:36:15;101969.22;;;20.52;48.40
23261;BME280;11799;47.740;-3.390;2022-07-17T05:38:41;101968.66;;;20.50;48.40
23261;BME280;11799;47.740;-3.390;2022-07-17T05:41:06;101960.38;;;20.50;48.85
23261;BME280;11799;47.740;-3.390;2022-07-17T05:43:32;101970.31;;;20.51;48.83
23261;BME280;11799;47.740;-3.390;2022-07-17T05:45:58;101964.50;;;20.48;49.02
23261;BME280;11799;47.740;-3.390;2022-07-17T05:48:24;101952.66;;;20.52;48.64
23261;BME280;11799;47.740;-3.390;2022-07-17T05:50:51;101953.75;;;20.57;48.75
23261;BME280;11799;47.740;-3.390;2022-07-17T05:53:17;101952.09;;;20.55;48.45
23261;BME280;11799;47.740;-3.390;2022-07-17T05:55:43;101958.97;;;20.63;48.20
23261;BME280;11799;47.740;-3.390;2022-07-17T05:58:09;101961.72;;;20.78;47.86
23261;BME280;11799;47.740;-3.390;2022-07-17T06:00:36;101958.69;;;20.90;48.11
23261;BME280;11799;47.740;-3.390;2022-07-17T06:03:02;101955.09;;;21.00;47.30
23261;BME280;11799;47.740;-3.390;2022-07-17T06:05:27;101958.09;;;21.13;46.94
23261;BME280;11799;47.740;-3.390;2022-07-17T06:07:54;101955.31;;;21.34;47.09
23261;BME280;11799;47.740;-3.390;2022-07-17T06:10:20;101963.31;;;21.35;46.42
23261;BME280;11799;47.740;-3.390;2022-07-17T06:12:46;101955.88;;;21.31;46.33
23261;BME280;11799;47.740;-3.390;2022-07-17T06:15:12;101961.59;;;21.49;46.71
23261;BME280;11799;47.740;-3.390;2022-07-17T06:17:37;101949.16;;;21.57;45.66
23261;BME280;11799;47.740;-3.390;2022-07-17T06:20:04;101954.59;;;21.77;46.50
23261;BME280;11799;47.740;-3.390;2022-07-17T06:22:29;101956.28;;;21.68;44.95
23261;BME280;11799;47.740;-3.390;2022-07-17T06:24:55;101950.13;;;21.87;45.24
23261;BME280;11799;47.740;-3.390;2022-07-17T06:27:21;101952.91;;;21.87;45.05
23261;BME280;11799;47.740;-3.390;2022-07-17T06:29:47;101957.03;;;21.89;44.58
23261;BME280;11799;47.740;-3.390;2022-07-17T06:32:13;101953.34;;;22.09;44.91
23261;BME280;11799;47.740;-3.390;2022-07-17T06:34:39;101953.25;;;22.19;45.32
23261;BME280;11799;47.740;-3.390;2022-07-17T06:37:05;101954.66;;;22.17;44.15
23261;BME280;11799;47.740;-3.390;2022-07-17T06:39:30;101958.03;;;22.48;44.55
23261;BME280;11799;47.740;-3.390;2022-07-17T06:41:56;101951.16;;;22.45;43.23
23261;BME280;11799;47.740;-3.390;2022-07-17T06:44:22;101954.94;;;22.54;43.92
23261;BME280;11799;47.740;-3.390;2022-07-17T06:46:47;101958.53;;;22.60;44.25
23261;BME280;11799;47.740;-3.390;2022-07-17T06:49:13;101950.63;;;23.06;43.30
23261;BME280;11799;47.740;-3.390;2022-07-17T06:51:38;101952.59;;;23.29;41.63
23261;BME280;11799;47.740;-3.390;2022-07-17T06:54:04;101966.16;;;23.55;42.42
23261;BME280;11799;47.740;-3.390;2022-07-17T06:56:30;101955.03;;;24.03;40.03
23261;BME280;11799;47.740;-3.390;2022-07-17T06:58:55;101960.59;;;24.40;40.53
23261;BME280;11799;47.740;-3.390;2022-07-17T07:01:21;101961.53;;;24.68;39.19
23261;BME280;11799;47.740;-3.390;2022-07-17T07:03:46;101951.97;;;25.21;38.77
23261;BME280;11799;47.740;-3.390;2022-07-17T07:06:12;101965.34;;;25.18;38.24
23261;BME280;11799;47.740;-3.390;2022-07-17T07:08:37;101964.25;;;25.47;38.38
23261;BME280;11799;47.740;-3.390;2022-07-17T07:11:03;101957.09;;;25.96;37.82
23261;BME280;11799;47.740;-3.390;2022-07-17T07:13:29;101959.41;;;25.80;37.05
23261;BME280;11799;47.740;-3.390;2022-07-17T07:15:54;101965.47;;;25.82;37.06
23261;BME280;11799;47.740;-3.390;2022-07-17T07:18:21;101962.00;;;25.76;36.78
23261;BME280;11799;47.740;-3.390;2022-07-17T07:20:47;101968.50;;;25.72;36.86
23261;BME280;11799;47.740;-3.390;2022-07-17T07:23:13;101963.84;;;26.76;35.98
23261;BME280;11799;47.740;-3.390;2022-07-17T07:25:38;101971.13;;;25.91;36.55
23261;BME280;11799;47.740;-3.390;2022-07-17T07:28:04;101959.94;;;26.18;37.07
23261;BME280;11799;47.740;-3.390;2022-07-17T07:30:30;101958.34;;;26.62;35.85
23261;BME280;11799;47.740;-3.390;2022-07-17T07:32:55;101958.28;;;26.76;35.78
23261;BME280;11799;47.740;-3.390;2022-07-17T07:35:21;101968.75;;;25.98;36.78
23261;BME280;11799;47.740;-3.390;2022-07-17T07:37:47;101973.59;;;26.42;36.25
23261;BME280;11799;47.740;-3.390;2022-07-17T07:40:13;101970.28;;;26.85;36.01
23261;BME280;11799;47.740;-3.390;2022-07-17T07:42:39;101973.28;;;27.11;35.36
23261;BME280;11799;47.740;-3.390;2022-07-17T07:45:05;101979.03;;;27.14;35.60
23261;BME280;11799;47.740;-3.390;2022-07-17T07:47:31;101983.69;;;27.27;35.41
23261;BME280;11799;47.740;-3.390;2022-07-17T07:49:56;101981.78;;;27.85;35.23
23261;BME280;11799;47.740;-3.390;2022-07-17T07:52:22;101983.25;;;27.91;34.59
23261;BME280;11799;47.740;-3.390;2022-07-17T07:54:48;101977.56;;;28.31;34.37
23261;BME280;11799;47.740;-3.390;2022-07-17T07:57:14;101982.84;;;28.49;34.28
23261;BME280;11799;47.740;-3.390;2022-07-17T07:59:39;101979.38;;;28.26;34.06
23261;BME280;11799;47.740;-3.390;2022-07-17T08:02:05;101988.53;;;28.10;34.02
23261;BME280;11799;47.740;-3.390;2022-07-17T08:04:31;101989.50;;;27.96;34.68
23261;BME280;11799;47.740;-3.390;2022-07-17T08:06:56;101980.34;;;28.13;34.68
23261;BME280;11799;47.740;-3.390;2022-07-17T08:09:22;101979.03;;;28.19;34.10
23261;BME280;11799;47.740;-3.390;2022-07-17T08:11:48;101982.97;;;28.87;33.79
23261;BME280;11799;47.740;-3.390;2022-07-17T08:14:14;101981.50;;;28.55;33.98
23261;BME280;11799;47.740;-3.390;2022-07-17T08:16:39;101978.56;;;28.52;33.94
23261;BME280;11799;47.740;-3.390;2022-07-17T08:19:05;101980.53;;;28.51;34.51
23261;BME280;11799;47.740;-3.390;2022-07-17T08:21:31;101980.16;;;28.01;35.31
23261;BME280;11799;47.740;-3.390;2022-07-17T08:23:57;101980.50;;;27.51;35.58
23261;BME280;11799;47.740;-3.390;2022-07-17T08:26:22;101974.78;;;27.17;36.35
23261;BME280;11799;47.740;-3.390;2022-07-17T08:28:48;101975.78;;;27.21;36.59
23261;BME280;11799;47.740;-3.390;2022-07-17T08:31:14;101980.72;;;27.24;36.78
23261;BME280;11799;47.740;-3.390;2022-07-17T08:33:39;101979.28;;;27.35;36.98
23261;BME280;11799;47.740;-3.390;2022-07-17T08:36:05;101977.84;;;27.07;37.78
23261;BME280;11799;47.740;-3.390;2022-07-17T08:38:31;101973.19;;;27.33;37.00
23261;BME280;11799;47.740;-3.390;2022-07-17T08:40:56;101977.41;;;27.22;36.74
23261;BME280;11799;47.740;-3.390;2022-07-17T08:43:24;101971.41;;;27.77;36.40
23261;BME280;11799;47.740;-3.390;2022-07-17T08:45:50;101969.78;;;27.76;34.94
23261;BME280;11799;47.740;-3.390;2022-07-17T08:48:17;101972.91;;;28.09;35.14
23261;BME280;11799;47.740;-3.390;2022-07-17T08:50:44;101973.78;;;28.44;34.95
23261;BME280;11799;47.740;-3.390;2022-07-17T08:53:10;101972.94;;;28.69;33.96
23261;BME280;11799;47.740;-3.390;2022-07-17T08:55:36;101976.41;;;28.66;33.66
23261;BME280;11799;47.740;-3.390;2022-07-17T08:58:02;101964.59;;;28.52;34.31
23261;BME280;11799;47.740;-3.390;2022-07-17T09:00:29;101966.19;;;28.87;34.32
23261;BME280;11799;47.740;-3.390;2022-07-17T09:03:04;101966.81;;;29.02;34.12
23261;BME280;11799;47.740;-3.390;2022-07-17T09:05:32;101970.47;;;28.85;33.71
23261;BME280;11799;47.740;-3.390;2022-07-17T09:07:59;101957.34;;;28.51;33.96
23261;BME280;11799;47.740;-3.390;2022-07-17T09:10:42;101974.09;;;28.60;33.11
23261;BME280;11799;47.740;-3.390;2022-07-17T09:13:29;101967.81;;;28.71;32.46
23261;BME280;11799;47.740;-3.390;2022-07-17T09:16:06;101966.97;;;28.79;32.81
23261;BME280;11799;47.740;-3.390;2022-07-17T09:18:52;101969.59;;;29.02;32.19
23261;BME280;11799;47.740;-3.390;2022-07-17T09:21:25;101962.00;;;29.11;31.53
23261;BME280;11799;47.740;-3.390;2022-07-17T09:24:02;101968.69;;;29.27;33.00
23261;BME280;11799;47.740;-3.390;2022-07-17T09:26:28;101962.66;;;29.55;32.60
23261;BME280;11799;47.740;-3.390;2022-07-17T09:28:54;101952.84;;;28.93;33.14
23261;BME280;11799;47.740;-3.390;2022-07-17T09:31:28;101957.44;;;28.98;32.54
23261;BME280;11799;47.740;-3.390;2022-07-17T09:33:55;101964.00;;;29.48;32.27
23261;BME280;11799;47.740;-3.390;2022-07-17T09:36:21;101968.94;;;29.52;31.52
23261;BME280;11799;47.740;-3.390;2022-07-17T09:38:49;101966.97;;;29.43;32.44
23261;BME280;11799;47.740;-3.390;2022-07-17T09:41:18;101969.56;;;29.87;32.16
23261;BME280;11799;47.740;-3.390;2022-07-17T09:46:23;101956.28;;;29.75;30.87
23261;BME280;11799;47.740;-3.390;2022-07-17T09:48:51;101957.81;;;29.93;30.27
23261;BME280;11799;47.740;-3.390;2022-07-17T09:51:35;101954.28;;;30.05;30.13
23261;BME280;11799;47.740;-3.390;2022-07-17T09:54:05;101954.72;;;29.86;30.20
23261;BME280;11799;47.740;-3.390;2022-07-17T09:56:33;101956.91;;;29.42;30.24
23261;BME280;11799;47.740;-3.390;2022-07-17T10:01:27;101948.09;;;29.91;29.10
23261;BME280;11799;47.740;-3.390;2022-07-17T10:03:54;101953.28;;;30.01;29.40
23261;BME280;11799;47.740;-3.390;2022-07-17T10:06:21;101948.41;;;30.19;28.98
23261;BME280;11799;47.740;-3.390;2022-07-17T10:08:48;101952.09;;;29.81;29.44
23261;BME280;11799;47.740;-3.390;2022-07-17T10:11:14;101951.81;;;30.03;29.90
23261;BME280;11799;47.740;-3.390;2022-07-17T10:13:42;101955.47;;;29.95;29.26
23261;BME280;11799;47.740;-3.390;2022-07-17T10:16:09;101949.56;;;29.67;29.48
23261;BME280;11799;47.740;-3.390;2022-07-17T10:18:41;101950.06;;;30.20;28.44
23261;BME280;11799;47.740;-3.390;2022-07-17T10:21:14;101940.97;;;30.23;29.81
23261;BME280;11799;47.740;-3.390;2022-07-17T10:23:41;101930.97;;;30.34;28.76
23261;BME280;11799;47.740;-3.390;2022-07-17T10:26:08;101936.25;;;30.68;29.27
23261;BME280;11799;47.740;-3.390;2022-07-17T10:28:40;101936.25;;;30.68;28.19
23261;BME280;11799;47.740;-3.390;2022-07-17T10:31:05;101928.75;;;30.60;28.41
23261;BME280;11799;47.740;-3.390;2022-07-17T10:33:31;101925.03;;;30.68;29.11
23261;BME280;11799;47.740;-3.390;2022-07-17T10:35:56;101925.78;;;30.57;27.94
23261;BME280;11799;47.740;-3.390;2022-07-17T10:38:26;101922.53;;;31.00;28.41
23261;BME280;11799;47.740;-3.390;2022-07-17T10:41:01;101933.00;;;30.79;28.20
23261;BME280;11799;47.740;-3.390;2022-07-17T10:43:41;101930.22;;;30.91;28.79
23261;BME280;11799;47.740;-3.390;2022-07-17T10:46:07;101910.13;;;30.89;28.07
23261;BME280;11799;47.740;-3.390;2022-07-17T10:48:32;101919.31;;;30.77;27.99
23261;BME280;11799;47.740;-3.390;2022-07-17T10:50:58;101903.69;;;30.55;28.17
23261;BME280;11799;47.740;-3.390;2022-07-17T10:53:29;101915.47;;;30.82;28.16
23261;BME280;11799;47.740;-3.390;2022-07-17T10:56:06;101914.22;;;30.58;27.42
23261;BME280;11799;47.740;-3.390;2022-07-17T10:58:37;101907.31;;;30.89;27.30
23261;BME280;11799;47.740;-3.390;2022-07-17T11:01:05;101900.59;;;30.69;28.27
23261;BME280;11799;47.740;-3.390;2022-07-17T11:03:36;101896.78;;;30.98;27.32
23261;BME280;11799;47.740;-3.390;2022-07-17T11:06:07;101894.09;;;31.01;29.07
23261;BME280;11799;47.740;-3.390;2022-07-17T11:08:41;101909.66;;;31.11;28.08
23261;BME280;11799;47.740;-3.390;2022-07-17T11:11:07;101902.41;;;31.10;28.12
23261;BME280;11799;47.740;-3.390;2022-07-17T11:13:32;101903.41;;;31.26;27.86
23261;BME280;11799;47.740;-3.390;2022-07-17T11:15:58;101891.78;;;31.03;27.43
23261;BME280;11799;47.740;-3.390;2022-07-17T11:18:23;101895.31;;;31.25;27.32
23261;BME280;11799;47.740;-3.390;2022-07-17T11:21:00;101894.25;;;31.42;27.15
23261;BME280;11799;47.740;-3.390;2022-07-17T11:23:29;101895.19;;;31.21;26.82
23261;BME280;11799;47.740;-3.390;2022-07-17T11:26:04;101883.59;;;31.47;27.96
23261;BME280;11799;47.740;-3.390;2022-07-17T11:28:36;101885.34;;;31.52;26.04
23261;BME280;11799;47.740;-3.390;2022-07-17T11:31:24;101879.03;;;31.43;26.36
23261;BME280;11799;47.740;-3.390;2022-07-17T11:34:00;101876.69;;;31.45;26.36
23261;BME280;11799;47.740;-3.390;2022-07-17T11:36:33;101873.16;;;31.60;26.48
23261;BME280;11799;47.740;-3.390;2022-07-17T11:39:13;101876.66;;;31.69;25.80
23261;BME280;11799;47.740;-3.390;2022-07-17T11:41:40;101884.34;;;31.97;26.24
23261;BME280;11799;47.740;-3.390;2022-07-17T11:44:08;101876.31;;;32.11;26.01
23261;BME280;11799;47.740;-3.390;2022-07-17T11:46:35;101897.13;;;31.94;26.32
23261;BME280;11799;47.740;-3.390;2022-07-17T11:49:02;101874.97;;;32.20;26.51
23261;BME280;11799;47.740;-3.390;2022-07-17T11:51:38;101867.44;;;32.24;25.15
23261;BME280;11799;47.740;-3.390;2022-07-17T11:54:22;101868.16;;;32.21;25.53
23261;BME280;11799;47.740;-3.390;2022-07-17T11:56:58;101863.63;;;32.61;25.50
23261;BME280;11799;47.740;-3.390;2022-07-17T11:59:29;101867.06;;;32.82;24.92
23261;BME280;11799;47.740;-3.390;2022-07-17T12:01:55;101865.44;;;32.97;24.92
23261;BME280;11799;47.740;-3.390;2022-07-17T12:04:21;101867.31;;;33.40;24.00
23261;BME280;11799;47.740;-3.390;2022-07-17T12:06:58;101861.47;;;32.54;25.10
23261;BME280;11799;47.740;-3.390;2022-07-17T12:09:30;101861.19;;;32.59;24.16
23261;BME280;11799;47.740;-3.390;2022-07-17T12:11:59;101870.09;;;32.61;24.16
23261;BME280;11799;47.740;-3.390;2022-07-17T12:14:25;101863.84;;;32.68;24.36
23261;BME280;11799;47.740;-3.390;2022-07-17T12:16:51;101860.16;;;32.79;25.57
23261;BME280;11799;47.740;-3.390;2022-07-17T12:19:19;101870.38;;;33.19;24.31
23261;BME280;11799;47.740;-3.390;2022-07-17T12:21:59;101861.69;;;32.93;24.20
23261;BME280;11799;47.740;-3.390;2022-07-17T12:24:47;101860.94;;;32.96;23.72
23261;BME280;11799;47.740;-3.390;2022-07-17T12:27:14;101854.31;;;32.72;24.13
23261;BME280;11799;47.740;-3.390;2022-07-17T12:29:41;101853.97;;;33.05;24.75
23261;BME280;11799;47.740;-3.390;2022-07-17T12:32:12;101862.03;;;33.23;23.93
23261;BME280;11799;47.740;-3.390;2022-07-17T12:34:46;101855.69;;;33.10;23.78
23261;BME280;11799;47.740;-3.390;2022-07-17T12:37:16;101860.63;;;33.48;23.56
23261;BME280;11799;47.740;-3.390;2022-07-17T12:39:43;101857.56;;;33.22;22.61
23261;BME280;11799;47.740;-3.390;2022-07-17T12:42:09;101862.91;;;33.77;23.31
23261;BME280;11799;47.740;-3.390;2022-07-17T12:44:35;101860.38;;;33.72;23.21